Time;durP1;ratioP1;P1;durP2;ratioP2;P2;SDS_P1;SDS_P2;PMS_P1;PMS_P2;Temp;Humidity;BMP_temperature;BMP_pressure;BME280_temperature;BME280_humidity;BME280_pressure;Samples;Min_cycle;Max_cycle;Signal;HPM_P1;HPM_P2
2022/12/23 00:01:02;;;;;;;0.20;0.20;;;;;;;9.00;100.00;100231.13;4999721;28;20679;-73
2022/12/23 00:03:28;;;;;;;0.10;0.10;;;;;;;9.03;100.00;100231.88;4984375;28;20088;-74
2022/12/23 00:05:54;;;;;;;0.20;0.20;;;;;;;8.95;100.00;100221.78;4981513;28;20072;-73
2022/12/23 00:08:20;;;;;;;0.22;0.22;;;;;;;9.05;100.00;100235.28;5007009;28;20033;-75
2022/12/23 00:10:46;;;;;;;0.20;0.20;;;;;;;8.96;100.00;100240.38;4985262;28;20076;-73
2022/12/23 00:16:14;;;;;;;0.20;0.20;;;;;;;9.03;100.00;100255.97;5002525;28;20495;-75
2022/12/23 00:18:41;;;;;;;0.20;0.20;;;;;;;8.96;100.00;100232.34;5000354;28;20030;-73
2022/12/23 00:21:11;;;;;;;0.10;0.10;;;;;;;9.16;100.00;100253.97;4996976;28;20444;-73
2022/12/23 00:23:39;;;;;;;0.15;0.15;;;;;;;9.06;100.00;100259.22;5002968;28;20033;-75
2022/12/23 00:26:05;;;;;;;0.10;0.10;;;;;;;9.22;100.00;100266.03;5000252;28;20107;-73
2022/12/23 00:28:30;;;;;;;0.17;0.17;;;;;;;9.20;100.00;100255.44;5007385;28;20112;-73
2022/12/23 00:31:00;;;;;;;0.10;0.10;;;;;;;9.08;100.00;100264.47;4991977;28;20033;-73
2022/12/23 00:33:30;;;;;;;0.20;0.20;;;;;;;9.03;100.00;100254.13;5008134;28;20041;-74
2022/12/23 00:35:56;;;;;;;0.20;0.20;;;;;;;9.07;100.00;100276.16;5000175;28;20294;-76
2022/12/23 00:44:03;;;;;;;0.10;0.10;;;;;;;8.97;100.00;100263.50;5016578;28;20048;-73
2022/12/23 00:46:28;;;;;;;0.10;0.10;;;;;;;9.04;100.00;100279.94;5010599;28;20594;-72
2022/12/23 00:51:38;;;;;;;0.20;0.20;;;;;;;8.92;100.00;100256.84;5005263;28;20083;-73
2022/12/23 00:54:04;;;;;;;0.10;0.10;;;;;;;9.14;100.00;100283.59;5013209;28;20037;-73
2022/12/23 00:56:29;;;;;;;0.10;0.10;;;;;;;9.10;100.00;100287.47;5003362;28;20030;-72
2022/12/23 00:58:54;;;;;;;0.10;0.10;;;;;;;9.08;100.00;100281.38;5011320;28;20025;-73
2022/12/23 01:06:48;;;;;;;0.20;0.20;;;;;;;8.96;100.00;100269.84;5006529;28;20396;-73
2022/12/23 01:09:13;;;;;;;0.10;0.10;;;;;;;9.09;100.00;100292.97;4986369;28;20026;-72
2022/12/23 01:11:38;;;;;;;0.10;0.10;;;;;;;9.15;100.00;100304.03;4988881;28;20496;-72
2022/12/23 01:14:04;;;;;;;0.10;0.10;;;;;;;9.10;100.00;100306.22;5002479;28;20112;-73
2022/12/23 01:16:29;;;;;;;0.10;0.10;;;;;;;9.06;100.00;100302.09;4990270;28;20026;-73
2022/12/23 01:18:55;;;;;;;0.10;0.10;;;;;;;9.21;100.00;100317.91;5005455;28;20029;-73
2022/12/23 01:21:20;;;;;;;0.10;0.10;;;;;;;9.13;100.00;100308.66;5021687;28;20061;-73
2022/12/23 01:23:45;;;;;;;0.10;0.10;;;;;;;9.14;100.00;100312.19;4992353;28;20033;-73
2022/12/23 01:26:11;;;;;;;0.10;0.10;;;;;;;9.07;100.00;100297.59;5002357;28;20509;-72
2022/12/23 01:28:36;;;;;;;0.10;0.10;;;;;;;9.05;100.00;100288.84;5008210;28;20038;-72
2022/12/23 01:31:03;;;;;;;0.10;0.10;;;;;;;9.09;100.00;100298.31;4999695;28;20507;-72
2022/12/23 01:33:29;;;;;;;0.10;0.10;;;;;;;9.08;100.00;100310.84;4996099;28;20030;-74
2022/12/23 01:36:03;;;;;;;0.10;0.10;;;;;;;9.16;100.00;100315.59;5007769;28;20133;-73
2022/12/23 01:38:29;;;;;;;0.10;0.10;;;;;;;9.20;100.00;100325.06;5007944;28;20032;-73
2022/12/23 01:40:54;;;;;;;0.10;0.10;;;;;;;9.07;100.00;100310.97;4990845;28;20280;-74
2022/12/23 01:43:20;;;;;;;0.10;0.10;;;;;;;9.18;100.00;100323.50;5014557;28;20144;-73
2022/12/23 01:45:45;;;;;;;0.10;0.10;;;;;;;9.21;100.00;100324.09;5000884;28;20040;-73
2022/12/23 01:48:24;;;;;;;0.10;0.10;;;;;;;9.22;100.00;100314.25;5003248;28;20057;-72
2022/12/23 01:51:00;;;;;;;0.10;0.10;;;;;;;9.20;100.00;100322.41;4989545;28;20429;-73
2022/12/23 01:53:34;;;;;;;0.10;0.10;;;;;;;9.28;100.00;100330.69;4984145;28;20034;-73
2022/12/23 01:56:06;;;;;;;0.10;0.10;;;;;;;9.23;100.00;100324.00;5002307;28;20022;-73
2022/12/23 01:58:51;;;;;;;0.10;0.10;;;;;;;9.12;100.00;100325.69;4993081;28;20021;-72
2022/12/23 02:04:07;;;;;;;0.10;0.10;;;;;;;9.24;100.00;100350.66;5006156;28;20032;-73
2022/12/23 02:09:26;;;;;;;0.20;0.20;;;;;;;9.24;100.00;100356.00;4999641;28;20100;-74
2022/12/23 02:12:27;;;;;;;0.10;0.10;;;;;;;9.20;100.00;100361.75;4997157;28;20026;-74
2022/12/23 02:18:14;;;;;;;0.10;0.10;;;;;;;9.26;100.00;100359.41;4999298;28;20033;-74
2022/12/23 02:21:03;;;;;;;0.10;0.10;;;;;;;9.07;100.00;100346.63;4999877;28;20121;-73
2022/12/23 02:23:59;;;;;;;0.10;0.10;;;;;;;9.14;100.00;100347.00;5013769;28;20033;-74
2022/12/23 02:26:45;;;;;;;0.10;0.10;;;;;;;9.01;100.00;100355.16;4994017;28;20026;-73
2022/12/23 02:29:18;;;;;;;0.10;0.10;;;;;;;9.13;100.00;100375.63;5004537;28;20068;-73
2022/12/23 02:31:44;;;;;;;0.10;0.10;;;;;;;9.18;100.00;100380.59;5000725;28;20648;-73
2022/12/23 02:34:41;;;;;;;0.10;0.10;;;;;;;9.05;100.00;100366.50;5001779;28;20026;-72
2022/12/23 02:37:19;;;;;;;0.10;0.10;;;;;;;9.02;100.00;100359.53;4990888;28;20275;-73
2022/12/23 02:40:02;;;;;;;0.10;0.10;;;;;;;9.08;100.00;100377.81;5005839;28;20022;-74
2022/12/23 02:42:38;;;;;;;0.10;0.10;;;;;;;9.20;100.00;100391.22;5013480;28;20076;-73
2022/12/23 02:45:29;;;;;;;0.10;0.10;;;;;;;9.23;100.00;100391.81;4991146;28;20096;-74
2022/12/23 02:47:59;;;;;;;0.13;0.13;;;;;;;9.14;100.00;100387.16;5004241;28;20044;-73
2022/12/23 02:50:31;;;;;;;0.10;0.10;;;;;;;9.11;100.00;100401.66;5000944;28;20025;-74
2022/12/23 02:52:59;;;;;;;0.10;0.10;;;;;;;9.11;100.00;100404.34;5022701;28;20108;-72
2022/12/23 02:55:30;;;;;;;0.10;0.10;;;;;;;9.06;100.00;100416.41;5000837;28;20405;-73
2022/12/23 02:57:57;;;;;;;0.10;0.10;;;;;;;9.09;100.00;100418.84;5003076;28;20056;-73
2022/12/23 03:00:22;;;;;;;0.10;0.10;;;;;;;9.11;100.00;100424.94;4997677;28;20033;-73
2022/12/23 03:02:47;;;;;;;0.10;0.10;;;;;;;9.08;100.00;100427.84;4998204;28;20030;-73
2022/12/23 03:05:33;;;;;;;0.10;0.10;;;;;;;9.14;100.00;100438.94;4997935;28;20387;-74
2022/12/23 03:08:02;;;;;;;0.10;0.10;;;;;;;9.16;100.00;100436.13;4986796;28;20037;-73
2022/12/23 03:10:40;;;;;;;0.10;0.10;;;;;;;9.16;100.00;100420.03;4982468;28;20112;-73
2022/12/23 03:13:27;;;;;;;0.10;0.10;;;;;;;9.07;100.00;100420.78;4992111;28;20041;-72
2022/12/23 03:16:12;;;;;;;0.10;0.10;;;;;;;9.08;100.00;100427.84;4983867;28;20496;-72
2022/12/23 03:19:15;;;;;;;0.10;0.10;;;;;;;9.21;100.00;100422.38;5004073;28;20030;-74
2022/12/23 03:22:06;;;;;;;0.00;0.00;;;;;;;9.13;100.00;100428.34;5019982;28;20030;-73
2022/12/23 03:24:40;;;;;;;0.10;0.10;;;;;;;9.10;100.00;100423.22;4993791;28;20265;-73
2022/12/23 03:27:10;;;;;;;0.10;0.10;;;;;;;9.02;100.00;100399.69;5003417;28;20041;-72
2022/12/23 03:29:49;;;;;;;0.10;0.10;;;;;;;9.01;100.00;100392.63;5001647;28;20044;-72
2022/12/23 03:32:15;;;;;;;0.10;0.10;;;;;;;9.14;100.00;100427.34;4999187;28;20033;-72
2022/12/23 03:34:43;;;;;;;0.10;0.10;;;;;;;8.96;100.00;100393.00;5006890;28;20029;-72
2022/12/23 03:37:10;;;;;;;0.10;0.10;;;;;;;8.97;100.00;100396.56;5006515;28;20034;-73
2022/12/23 03:39:42;;;;;;;0.10;0.10;;;;;;;8.97;100.00;100399.22;5004333;28;20457;-72
2022/12/23 03:42:14;;;;;;;0.10;0.10;;;;;;;9.03;100.00;100408.59;4979983;28;20029;-72
2022/12/23 03:44:42;;;;;;;0.10;0.10;;;;;;;9.04;100.00;100396.91;4984939;28;20408;-72
2022/12/23 03:47:23;;;;;;;0.10;0.10;;;;;;;8.93;100.00;100414.66;4988462;28;20038;-72
2022/12/23 03:49:52;;;;;;;0.10;0.10;;;;;;;8.93;100.00;100397.75;4996687;28;20027;-71
2022/12/23 03:52:23;;;;;;;0.10;0.10;;;;;;;8.95;100.00;100417.25;5000400;28;20384;-72
2022/12/23 03:54:59;;;;;;;0.10;0.10;;;;;;;9.04;100.00;100424.53;5003596;28;20415;-72
2022/12/23 03:57:35;;;;;;;0.10;0.10;;;;;;;8.75;100.00;100392.00;5000062;28;20499;-71
2022/12/23 04:00:00;;;;;;;0.10;0.10;;;;;;;8.91;100.00;100421.13;5002163;28;20026;-72
2022/12/23 04:02:44;;;;;;;0.10;0.10;;;;;;;8.97;100.00;100417.97;4986481;28;20038;-72
2022/12/23 04:05:42;;;;;;;0.10;0.10;;;;;;;8.99;100.00;100419.56;4986442;28;20034;-72
2022/12/23 04:08:14;;;;;;;0.10;0.10;;;;;;;8.96;100.00;100425.13;4996569;28;20075;-72
2022/12/23 04:10:40;;;;;;;0.10;0.10;;;;;;;8.81;100.00;100407.59;4999666;28;20033;-72
2022/12/23 04:13:05;;;;;;;0.10;0.10;;;;;;;8.87;100.00;100419.66;4986820;28;20030;-74
2022/12/23 04:15:31;;;;;;;0.10;0.10;;;;;;;9.03;100.00;100438.91;5002075;28;20030;-72
2022/12/23 04:17:56;;;;;;;0.10;0.10;;;;;;;8.86;100.00;100424.16;4990288;28;20431;-72
2022/12/23 04:20:23;;;;;;;0.10;0.10;;;;;;;8.99;100.00;100450.84;4990483;28;20405;-72
2022/12/23 04:22:48;;;;;;;0.10;0.10;;;;;;;8.95;100.00;100452.03;5006058;28;20437;-74
2022/12/23 04:25:15;;;;;;;0.10;0.10;;;;;;;8.96;100.00;100459.94;5004850;28;20065;-71
2022/12/23 04:27:40;;;;;;;0.10;0.10;;;;;;;8.89;100.00;100431.94;5004215;28;20064;-72
2022/12/23 04:30:07;;;;;;;0.10;0.10;;;;;;;9.02;100.00;100455.94;4989790;28;20030;-72
2022/12/23 04:32:32;;;;;;;0.10;0.10;;;;;;;8.94;100.00;100444.97;5005176;28;20502;-72
2022/12/23 04:34:57;;;;;;;0.10;0.10;;;;;;;8.94;100.00;100447.66;5002371;28;20029;-72
2022/12/23 04:37:23;;;;;;;0.10;0.10;;;;;;;8.97;100.00;100460.81;4990291;28;20466;-72
2022/12/23 04:39:48;;;;;;;0.10;0.10;;;;;;;9.01;100.00;100446.19;5011096;28;20030;-72
2022/12/23 04:42:13;;;;;;;0.10;0.10;;;;;;;8.85;100.00;100446.56;4997742;28;20025;-73
2022/12/23 04:44:38;;;;;;;0.10;0.10;;;;;;;8.98;100.00;100471.41;4997625;28;20137;-72
2022/12/23 04:47:04;;;;;;;0.10;0.10;;;;;;;8.90;100.00;100455.06;5010295;28;20083;-72
2022/12/23 04:49:30;;;;;;;0.10;0.10;;;;;;;8.91;100.00;100455.94;5015914;28;20456;-72
2022/12/23 04:51:55;;;;;;;0.10;0.10;;;;;;;8.87;100.00;100470.50;5012867;28;20116;-72
2022/12/23 04:54:21;;;;;;;0.10;0.10;;;;;;;8.78;100.00;100448.00;5014829;28;20118;-72
2022/12/23 04:56:46;;;;;;;0.10;0.10;;;;;;;8.80;100.00;100464.78;5004648;28;20079;-71
2022/12/23 04:59:12;;;;;;;0.10;0.10;;;;;;;8.86;100.00;100464.31;4986871;28;20130;-72
2022/12/23 05:01:37;;;;;;;0.10;0.10;;;;;;;8.85;100.00;100454.59;5001310;28;20036;-72
2022/12/23 05:04:02;;;;;;;0.10;0.10;;;;;;;8.74;100.00;100430.44;5002173;28;20084;-72
2022/12/23 05:06:28;;;;;;;0.10;0.10;;;;;;;8.85;100.00;100452.75;5002011;28;20034;-72
2022/12/23 05:08:53;;;;;;;0.10;0.10;;;;;;;8.81;100.00;100442.41;5000007;28;20030;-72
2022/12/23 05:11:18;;;;;;;0.10;0.10;;;;;;;8.77;100.00;100432.91;5000803;28;20143;-72
2022/12/23 05:13:44;;;;;;;0.10;0.10;;;;;;;8.77;100.00;100439.09;4999420;28;20042;-72
2022/12/23 05:16:09;;;;;;;0.10;0.10;;;;;;;8.84;100.00;100444.84;4999884;28;20034;-73
2022/12/23 05:18:34;;;;;;;0.10;0.10;;;;;;;8.92;100.00;100455.78;4982415;28;20120;-72
2022/12/23 05:21:00;;;;;;;0.08;0.08;;;;;;;8.79;100.00;100429.13;4982217;28;20026;-72
2022/12/23 05:23:25;;;;;;;0.10;0.10;;;;;;;8.85;100.00;100447.38;5000025;28;20365;-72
2022/12/23 05:25:51;;;;;;;0.10;0.10;;;;;;;8.85;100.00;100438.53;5019536;28;20479;-72
2022/12/23 05:28:17;;;;;;;0.10;0.10;;;;;;;8.98;100.00;100473.25;5008794;28;20034;-71
2022/12/23 05:30:42;;;;;;;0.10;0.10;;;;;;;8.81;100.00;100461.13;5004074;28;20030;-72
2022/12/23 05:33:08;;;;;;;0.03;0.03;;;;;;;8.91;100.00;100478.19;5008785;28;20904;-72
2022/12/23 05:35:33;;;;;;;0.10;0.10;;;;;;;8.92;100.00;100481.72;5003664;28;20538;-72
2022/12/23 05:38:01;;;;;;;0.10;0.10;;;;;;;8.80;100.00;100473.66;4999245;28;20033;-71
2022/12/23 05:40:26;;;;;;;0.10;0.10;;;;;;;8.77;100.00;100468.53;5008912;28;20496;-72
2022/12/23 05:42:52;;;;;;;0.10;0.10;;;;;;;8.83;100.00;100469.91;5006705;28;20033;-72
2022/12/23 05:45:17;;;;;;;0.10;0.10;;;;;;;8.98;100.00;100497.34;4993295;28;20435;-72
2022/12/23 05:47:42;;;;;;;0.10;0.10;;;;;;;8.97;100.00;100514.38;5009813;28;20021;-72
2022/12/23 05:50:08;;;;;;;0.10;0.10;;;;;;;9.03;100.00;100513.03;5012972;28;20049;-72
2022/12/23 05:52:33;;;;;;;0.10;0.10;;;;;;;9.03;100.00;100518.41;5008016;28;20025;-72
2022/12/23 05:54:59;;;;;;;0.00;0.00;;;;;;;8.99;100.00;100513.28;4999546;28;20030;-72
2022/12/23 05:57:24;;;;;;;0.10;0.10;;;;;;;9.00;100.00;100506.94;5008947;28;20104;-72
2022/12/23 05:59:49;;;;;;;0.10;0.10;;;;;;;8.76;100.00;100474.00;4990711;28;20029;-72
2022/12/23 06:02:15;;;;;;;0.10;0.10;;;;;;;8.87;100.00;100494.63;5005746;28;20061;-72
2022/12/23 06:04:40;;;;;;;0.10;0.10;;;;;;;8.84;100.00;100479.66;5013640;28;20025;-72
2022/12/23 06:07:06;;;;;;;0.05;0.05;;;;;;;8.84;100.00;100476.97;5001515;28;20025;-72
2022/12/23 06:09:31;;;;;;;0.10;0.10;;;;;;;8.87;100.00;100482.09;5003216;28;20424;-72
2022/12/23 06:11:57;;;;;;;0.10;0.10;;;;;;;8.83;100.00;100468.06;5001794;28;20054;-72
2022/12/23 06:14:22;;;;;;;0.10;0.10;;;;;;;8.88;100.00;100477.59;5005222;28;20117;-73
2022/12/23 06:16:47;;;;;;;0.10;0.10;;;;;;;8.93;100.00;100475.41;5001898;28;20030;-73
2022/12/23 06:19:13;;;;;;;0.10;0.10;;;;;;;8.96;100.00;100480.53;4985870;28;20472;-73
2022/12/23 06:21:38;;;;;;;0.10;0.10;;;;;;;8.87;100.00;100468.72;5003064;28;20030;-73
2022/12/23 06:24:04;;;;;;;0.08;0.08;;;;;;;8.82;100.00;100461.00;4988429;28;20045;-73
2022/12/23 06:26:29;;;;;;;0.10;0.10;;;;;;;8.84;100.00;100455.56;4995969;28;20025;-72
2022/12/23 06:28:54;;;;;;;0.10;0.10;;;;;;;8.84;100.00;100463.59;4986866;28;20064;-73
2022/12/23 06:31:20;;;;;;;0.10;0.10;;;;;;;8.85;100.00;100452.75;5001237;28;20112;-73
2022/12/23 06:33:46;;;;;;;0.10;0.10;;;;;;;8.82;100.00;100452.97;5012326;28;20054;-72
2022/12/23 06:36:12;;;;;;;0.10;0.10;;;;;;;8.79;100.00;100457.72;5012297;28;20735;-73
2022/12/23 06:38:37;;;;;;;0.10;0.10;;;;;;;8.83;100.00;100465.41;5007383;28;20033;-73
2022/12/23 06:41:03;;;;;;;0.10;0.10;;;;;;;8.85;100.00;100473.31;4986380;28;20041;-72
2022/12/23 06:43:28;;;;;;;0.10;0.10;;;;;;;8.75;100.00;100473.16;5007671;28;20112;-72
2022/12/23 06:45:54;;;;;;;0.10;0.10;;;;;;;8.67;100.00;100465.72;5001339;28;20038;-72
2022/12/23 06:48:19;;;;;;;0.10;0.10;;;;;;;8.76;100.00;100488.25;5005573;28;20156;-73
2022/12/23 06:50:45;;;;;;;0.10;0.10;;;;;;;8.64;100.00;100491.84;4988327;28;20431;-72
2022/12/23 06:53:11;;;;;;;0.10;0.10;;;;;;;8.72;100.00;100497.50;5001251;28;20052;-72
2022/12/23 06:55:36;;;;;;;0.10;0.10;;;;;;;8.62;100.00;100497.31;5003877;28;20042;-72
2022/12/23 06:58:01;;;;;;;0.10;0.10;;;;;;;8.64;100.00;100500.72;5001107;28;20037;-73
2022/12/23 07:00:27;;;;;;;0.10;0.10;;;;;;;8.62;100.00;100505.34;4998197;28;20056;-72
2022/12/23 07:02:53;;;;;;;0.10;0.10;;;;;;;8.63;100.00;100519.59;4999986;28;20038;-72
2022/12/23 07:05:18;;;;;;;0.10;0.10;;;;;;;8.57;100.00;100494.16;4997966;28;20586;-72
2022/12/23 07:07:44;;;;;;;0.10;0.10;;;;;;;8.73;100.00;100525.09;4997376;28;20040;-71
2022/12/23 07:10:09;;;;;;;0.10;0.10;;;;;;;8.51;100.00;100499.97;4997301;28;20037;-72
2022/12/23 07:12:35;;;;;;;0.10;0.10;;;;;;;8.61;100.00;100540.25;5003270;28;20141;-72
2022/12/23 07:15:00;;;;;;;0.10;0.10;;;;;;;8.51;100.00;100532.06;5001929;28;20075;-71
2022/12/23 07:17:27;;;;;;;0.10;0.10;;;;;;;8.59;100.00;100559.13;4996881;28;20048;-72
2022/12/23 07:19:52;;;;;;;0.10;0.10;;;;;;;8.53;100.00;100546.19;4999246;28;20029;-72
2022/12/23 07:22:17;;;;;;;0.10;0.10;;;;;;;8.54;100.00;100545.22;5004550;28;20034;-71
2022/12/23 07:24:43;;;;;;;0.10;0.10;;;;;;;8.66;100.00;100562.19;5000153;28;20690;-71
2022/12/23 07:27:08;;;;;;;0.10;0.10;;;;;;;8.65;100.00;100555.97;5000227;28;20623;-71
2022/12/23 07:29:33;;;;;;;0.15;0.15;;;;;;;8.61;100.00;100551.81;5000437;28;20072;-71
2022/12/23 07:32:00;;;;;;;0.10;0.10;;;;;;;8.63;100.00;100551.69;4999551;28;20105;-72
2022/12/23 07:34:26;;;;;;;0.10;0.10;;;;;;;8.66;100.00;100552.31;5001627;28;20119;-71
2022/12/23 07:36:51;;;;;;;0.17;0.17;;;;;;;8.68;100.00;100545.03;4999256;28;20037;-71
2022/12/23 07:39:16;;;;;;;0.10;0.10;;;;;;;8.62;100.00;100516.03;4998768;28;20029;-76
2022/12/23 07:41:42;;;;;;;0.10;0.10;;;;;;;8.61;100.00;100545.59;4981090;28;20034;-72
2022/12/23 07:44:07;;;;;;;0.10;0.10;;;;;;;8.62;100.00;100542.81;4984480;28;20025;-71
2022/12/23 07:46:33;;;;;;;0.10;0.10;;;;;;;8.61;100.00;100540.25;4999602;28;20045;-71
2022/12/23 07:48:58;;;;;;;0.17;0.17;;;;;;;8.47;100.00;100518.03;4998894;28;20058;-71
2022/12/23 07:51:24;;;;;;;0.10;0.10;;;;;;;8.47;100.00;100523.38;4999895;28;20041;-71
2022/12/23 07:53:50;;;;;;;0.13;0.13;;;;;;;8.50;100.00;100519.66;4983908;28;20112;-71
2022/12/23 07:56:15;;;;;;;0.10;0.10;;;;;;;8.63;100.00;100522.25;4995302;28;20064;-71
2022/12/23 07:58:41;;;;;;;0.10;0.10;;;;;;;8.49;100.00;100512.59;4994005;28;20064;-71
2022/12/23 08:01:06;;;;;;;0.10;0.10;;;;;;;8.59;100.00;100520.78;4983796;28;20041;-71
2022/12/23 08:03:33;;;;;;;0.10;0.10;;;;;;;8.57;100.00;100506.66;4999431;28;20872;-71
2022/12/23 08:06:11;;;;;;;0.10;0.10;;;;;;;8.50;100.00;100498.25;5003022;28;20030;-71
2022/12/23 08:08:36;;;;;;;0.17;0.17;;;;;;;8.69;100.00;100540.56;5000916;28;20034;-71
2022/12/23 08:11:03;;;;;;;0.10;0.10;;;;;;;8.49;100.00;100507.25;4997533;28;20369;-71
2022/12/23 08:13:29;;;;;;;0.10;0.10;;;;;;;8.54;100.00;100532.69;4998234;28;20026;-71
2022/12/23 08:15:57;;;;;;;0.13;0.13;;;;;;;8.66;100.00;100546.97;4998347;28;20084;-71
2022/12/23 08:18:22;;;;;;;0.10;0.10;;;;;;;8.76;100.00;100527.56;4995632;28;20167;-71
2022/12/23 08:21:02;;;;;;;0.10;0.10;;;;;;;8.63;100.00;100512.41;4994150;28;20034;-71
2022/12/23 08:23:29;;;;;;;0.10;0.10;;;;;;;8.75;100.00;100545.41;4995398;28;20458;-71
2022/12/23 08:26:05;;;;;;;0.10;0.10;;;;;;;8.76;100.00;100531.06;4999150;28;20030;-71
2022/12/23 08:28:31;;;;;;;0.10;0.10;;;;;;;8.77;100.00;100516.72;4999708;28;20148;-71
2022/12/23 08:31:05;;;;;;;0.15;0.15;;;;;;;8.69;100.00;100503.06;5002156;28;20068;-71
2022/12/23 08:33:30;;;;;;;0.13;0.13;;;;;;;8.76;100.00;100493.59;4983189;28;20025;-71
2022/12/23 08:35:56;;;;;;;0.20;0.20;;;;;;;8.84;100.00;100488.53;4995774;28;20388;-71
2022/12/23 08:38:21;;;;;;;0.20;0.20;;;;;;;8.87;100.00;100497.28;4996858;28;20034;-71
2022/12/23 08:40:46;;;;;;;0.10;0.10;;;;;;;8.78;100.00;100485.47;4998036;28;20034;-71
2022/12/23 08:43:12;;;;;;;0.10;0.10;;;;;;;8.72;100.00;100481.44;4995178;28;20444;-71
2022/12/23 08:45:37;;;;;;;0.10;0.10;;;;;;;8.89;100.00;100506.06;4993167;28;20726;-71
2022/12/23 08:48:04;;;;;;;0.10;0.10;;;;;;;8.72;100.00;100494.81;4999294;28;20040;-71
2022/12/23 08:50:29;;;;;;;0.10;0.10;;;;;;;8.61;100.00;100484.06;5002053;28;20473;-71
2022/12/23 08:52:55;;;;;;;0.20;0.20;;;;;;;8.74;100.00;100502.72;5000415;28;20057;-71
2022/12/23 08:55:20;;;;;;;0.20;0.20;;;;;;;8.81;100.00;100498.63;4998382;28;20085;-71
2022/12/23 08:57:45;;;;;;;0.10;0.10;;;;;;;8.63;100.00;100504.38;4993691;28;20140;-71
2022/12/23 09:00:11;;;;;;;0.10;0.10;;;;;;;8.66;100.00;100497.94;4995971;28;20112;-71
2022/12/23 09:02:36;;;;;;;0.10;0.10;;;;;;;8.57;100.00;100482.56;5000765;28;20656;-71
2022/12/23 09:05:02;;;;;;;0.20;0.20;;;;;;;8.61;100.00;100484.06;5003661;28;20034;-71
2022/12/23 09:07:27;;;;;;;0.10;0.10;;;;;;;8.65;100.00;100481.03;4999967;28;20076;-72
2022/12/23 09:09:52;;;;;;;0.20;0.20;;;;;;;8.76;100.00;100482.88;5001196;28;20578;-71
2022/12/23 09:12:18;;;;;;;0.10;0.10;;;;;;;8.63;100.00;100456.19;5000013;28;20777;-71
2022/12/23 09:14:46;;;;;;;0.20;0.20;;;;;;;8.78;100.00;100456.03;5001345;28;20045;-71
2022/12/23 09:17:12;;;;;;;0.20;0.20;;;;;;;8.69;100.00;100454.91;4997510;28;20030;-71
2022/12/23 09:19:37;;;;;;;0.20;0.20;;;;;;;8.75;100.00;100446.38;4998447;28;20033;-71
2022/12/23 09:22:02;;;;;;;0.20;0.20;;;;;;;8.83;100.00;100462.72;4999713;28;20196;-71
2022/12/23 09:24:28;;;;;;;0.30;0.30;;;;;;;8.58;100.00;100446.81;5001575;28;20033;-71
2022/12/23 09:26:53;;;;;;;0.20;0.20;;;;;;;8.88;100.00;100461.50;4998194;28;20026;-72
2022/12/23 09:29:18;;;;;;;0.20;0.20;;;;;;;8.61;100.00;100441.25;4998984;28;20050;-72
2022/12/23 09:31:43;;;;;;;0.20;0.20;;;;;;;8.93;100.00;100454.81;5002379;28;20136;-71
2022/12/23 09:34:09;;;;;;;0.20;0.20;;;;;;;8.78;100.00;100446.16;4999229;28;20218;-71
2022/12/23 09:36:35;;;;;;;0.22;0.22;;;;;;;8.59;100.00;100438.69;4996399;28;20099;-71
2022/12/23 09:39:00;;;;;;;0.20;0.20;;;;;;;8.68;100.00;100429.94;4996098;28;20938;-71
2022/12/23 09:41:32;;;;;;;0.20;0.20;;;;;;;8.82;100.00;100455.66;4982780;28;20286;-71
2022/12/23 09:44:25;;;;;;;0.20;0.20;;;;;;;8.80;100.00;100452.25;4998220;28;20744;-71
2022/12/23 09:46:53;;;;;;;0.20;0.20;;;;;;;8.83;100.00;100429.75;4998792;28;20038;-71
2022/12/23 09:49:19;;;;;;;0.20;0.20;;;;;;;9.10;100.00;100432.09;4998279;28;20026;-71
2022/12/23 09:51:45;;;;;;;0.20;0.20;;;;;;;8.69;100.00;100407.56;4997491;28;22052;-71
2022/12/23 09:54:23;;;;;;;0.20;0.20;;;;;;;8.63;100.00;100400.00;5013075;28;20036;-72
2022/12/23 09:56:54;;;;;;;0.10;0.10;;;;;;;8.97;100.00;100417.97;4998749;28;21361;-71
2022/12/23 09:59:33;;;;;;;0.10;0.10;;;;;;;8.96;100.00;100413.59;4996710;28;20448;-71
2022/12/23 10:02:08;;;;;;;0.20;0.20;;;;;;;8.99;100.00;100414.19;4994315;28;20033;-71
2022/12/23 10:04:38;;;;;;;0.20;0.20;;;;;;;8.94;100.00;100408.34;5001581;28;20612;-71
2022/12/23 10:07:13;;;;;;;0.15;0.15;;;;;;;8.81;100.00;100388.88;4999021;28;20076;-71
2022/12/23 10:09:40;;;;;;;0.20;0.20;;;;;;;8.90;100.00;100401.50;5001326;28;20166;-72
2022/12/23 10:12:36;;;;;;;0.20;0.20;;;;;;;8.96;100.00;100403.72;4997951;28;20030;-71
2022/12/23 10:15:05;;;;;;;0.20;0.20;;;;;;;8.90;100.00;100392.66;4976141;28;20042;-71
2022/12/23 10:17:37;;;;;;;0.30;0.30;;;;;;;8.89;100.00;100407.00;4983442;28;20032;-71
2022/12/23 10:20:03;;;;;;;0.20;0.20;;;;;;;9.04;100.00;100404.94;5015343;28;20029;-72
2022/12/23 10:22:35;;;;;;;0.25;0.25;;;;;;;8.92;100.00;100409.44;4999831;28;20496;-71
2022/12/23 10:25:02;;;;;;;0.20;0.20;;;;;;;8.94;100.00;100402.97;4996165;28;20026;-71
2022/12/23 10:27:37;;;;;;;0.20;0.20;;;;;;;9.12;100.00;100384.63;4996648;28;20157;-71
2022/12/23 10:30:06;;;;;;;0.20;0.20;;;;;;;9.05;100.00;100391.44;4999998;28;20025;-72
2022/12/23 10:32:50;;;;;;;0.20;0.20;;;;;;;9.05;100.00;100387.91;5000055;28;20503;-71
2022/12/23 10:35:37;;;;;;;0.20;0.20;;;;;;;8.88;100.00;100383.88;5002040;28;20550;-71
2022/12/23 10:38:52;;;;;;;0.20;0.20;;;;;;;9.04;100.00;100367.47;4997216;28;20040;-71
2022/12/23 10:41:33;;;;;;;0.20;0.20;;;;;;;9.08;100.00;100367.09;4992761;28;20052;-72
2022/12/23 10:44:13;;;;;;;0.20;0.20;;;;;;;9.08;100.00;100361.72;4995270;28;20029;-72
2022/12/23 10:47:04;;;;;;;0.13;0.13;;;;;;;9.09;100.00;100362.59;4993100;28;20030;-71
2022/12/23 10:49:45;;;;;;;0.20;0.20;;;;;;;8.97;100.00;100346.53;5012563;28;20030;-73
2022/12/23 10:52:15;;;;;;;0.20;0.20;;;;;;;8.82;100.00;100370.00;5015422;28;20072;-72
2022/12/23 10:54:43;;;;;;;0.20;0.20;;;;;;;8.96;100.00;100360.88;4995673;28;20026;-71
2022/12/23 10:57:08;;;;;;;0.17;0.17;;;;;;;9.08;100.00;100350.19;4991210;28;20036;-75
2022/12/23 10:59:35;;;;;;;0.20;0.20;;;;;;;9.08;100.00;100348.34;4994693;28;20420;-71
2022/12/23 11:02:12;;;;;;;0.20;0.20;;;;;;;8.93;100.00;100339.69;5009626;28;21879;-72
2022/12/23 11:04:40;;;;;;;0.10;0.10;;;;;;;9.08;100.00;100323.41;4998066;28;20496;-71
2022/12/23 11:07:16;;;;;;;0.20;0.20;;;;;;;8.90;100.00;100326.53;4979882;28;20408;-71
2022/12/23 11:09:58;;;;;;;0.20;0.20;;;;;;;8.76;100.00;100311.56;4998815;28;20029;-71
2022/12/23 11:12:25;;;;;;;0.10;0.10;;;;;;;8.96;100.00;100311.84;4979465;28;20029;-71
2022/12/23 11:14:51;;;;;;;0.20;0.20;;;;;;;9.04;100.00;100313.91;5004551;28;20748;-72
2022/12/23 11:17:28;;;;;;;0.10;0.10;;;;;;;8.61;100.00;100260.09;4990638;28;20091;-71
2022/12/23 11:20:17;;;;;;;0.20;0.20;;;;;;;8.73;100.00;100306.50;4997218;28;20026;-71
2022/12/23 11:22:54;;;;;;;0.15;0.15;;;;;;;8.90;100.00;100283.72;4995325;28;20420;-72
2022/12/23 11:25:37;;;;;;;0.10;0.10;;;;;;;9.00;100.00;100290.03;4992050;28;20235;-72
2022/12/23 11:28:09;;;;;;;0.20;0.20;;;;;;;9.11;100.00;100283.81;4998097;28;20547;-71
2022/12/23 11:30:44;;;;;;;0.20;0.20;;;;;;;9.19;100.00;100285.03;5002249;28;20381;-71
2022/12/23 11:33:20;;;;;;;0.10;0.10;;;;;;;8.99;100.00;100306.25;5004836;28;20426;-72
2022/12/23 11:35:45;;;;;;;0.13;0.13;;;;;;;8.87;100.00;100291.16;5023794;28;20033;-72
2022/12/23 11:38:12;;;;;;;0.10;0.10;;;;;;;8.82;100.00;100278.13;4983767;28;20037;-71
2022/12/23 11:40:38;;;;;;;0.20;0.20;;;;;;;8.64;100.00;100259.03;5003362;28;20037;-71
2022/12/23 11:43:05;;;;;;;0.10;0.10;;;;;;;8.82;100.00;100283.50;4998321;28;20034;-71
2022/12/23 11:45:35;;;;;;;0.10;0.10;;;;;;;8.74;100.00;100251.97;5004559;28;20499;-71
2022/12/23 11:48:02;;;;;;;0.10;0.10;;;;;;;8.75;100.00;100244.78;5003143;28;20034;-71
2022/12/23 11:50:31;;;;;;;0.20;0.20;;;;;;;8.21;100.00;100149.03;5004212;28;20207;-72
2022/12/23 11:53:11;;;;;;;0.10;0.10;;;;;;;8.77;100.00;100256.22;5003429;28;20385;-71
2022/12/23 11:55:47;;;;;;;0.10;0.10;;;;;;;8.81;100.00;100258.53;5005375;28;20026;-72
2022/12/23 11:58:17;;;;;;;0.20;0.20;;;;;;;8.65;100.00;100232.13;4997077;28;20018;-72
2022/12/23 12:00:50;;;;;;;0.13;0.13;;;;;;;8.80;100.00;100226.53;4998014;28;20113;-72